Birmingham, AL (35234)

8:26 AM CDT on July 28, 2016 (GMT -0500)
UAB HHB | | Change Station

Elev 617 ft 33.50 °N, 86.81 °W | Updated 48 seconds ago

Overcast
Overcast
76.4 °F
Feels Like 77 °F
N
12.0
Wind Variable Wind from NNE
Gusts 15.0 mph

Today
High -- | Low -- °F
--% Chance of Precip.
Yesterday
High -- | Low -- °F
Precip. -- in
Pressure 30.06 in
Visibility 10.0 miles
Clouds Mostly Cloudy 1400 ft
Overcast 2700 ft
Heat Index 77 °F
Dew Point 73 °F
Humidity 88%
Rainfall 0.00 in
Snow Depth Not available.
5:57 AM 7:49 PM
Waning Crescent, 32% visible
SPECI KBHM 281302Z 21009KT 10SM BKN014 OVC027 25/22 A3006 RMK AO2 T02500217
Pressure 30.06 in
Visibility 10.0 miles
Clouds Mostly Cloudy 1400 ft
Overcast 2700 ft
Heat Index 77 °F
Dew Point 73 °F
Humidity 88%
Rainfall 0.00 in
Snow Depth Not available.
5:57 AM 7:49 PM
Waning Crescent, 32% visible
SPECI KBHM 281302Z 21009KT 10SM BKN014 OVC027 25/22 A3006 RMK AO2 T02500217

10-Day Weather Forecast

Almanac

Astronomy

Jul. 28, 2016 Rise Set
Actual Time
Civil Twilight
Nautical Twilight
Astronomical Twilight
Moon
Length of Visible Light
Length of Day
Tomorrow will be .
, % of the Moon is Illuminated

Today's Extremes

State Highs State Lows

Community

WunderPhotos

Upload Photos

1,928,112 photos uploaded!

WunderBlog® & News

Nearby

Air Quality

  Air Quality AQ Index Pollutant
Not available.

Snow Depth

Station Depth Elevation

Earthquake Activity

City Distance Mag. Time & Date
Minimum magnitude displayed is 2.5.

Coastal Water Temperatures

Place Temperature

Stations

Nearby Weather Stations

Station Location Temp. Windchill Dew Point Humidity Wind Precip. Elev Updated Type
                   

Watches & Warnings

There are currently no watches in effect.